Terminal Aerodrome Forecast
Issued by NWS

Home | Current Version | Previous Version | Text Only | Print | Product List | Glossary On
Versions: 1 2 3 4 5 6 7 8 9 10 11 12 13 14 15 16 17 18
000
FTUS43 KICT 292016 AAA
TAFCNU
TAF AMD
KCNU 292016Z 2920/3018 08015G22KT P6SM -SHRA VCTS SCT008 OVC080CB
      TEMPO 2920/2923 2SM +TSRA BKN008 OVC050CB
     FM292300 06015G22KT P6SM -RA OVC008
      TEMPO 2923/3002 1SM +TSRA OVC003CB
     FM300200 03012G20KT 3SM -RA VCTS OVC008CB
     FM300700 14007KT 5SM BR VCSH OVC003
     FM301200 19010KT P6SM OVC015=

USA.gov is the U.S. government's official web portal to all federal, state and local government web resources and services.